createdAt,value
2023-05-14T00:00:31.788Z,100434.31
2023-05-14T00:03:37.582Z,100439.00
2023-05-14T00:06:43.020Z,100430.06
2023-05-14T00:09:45.729Z,100441.09
2023-05-14T00:12:48.493Z,100429.59
2023-05-14T00:15:51.188Z,100422.47
2023-05-14T00:18:54.044Z,100431.72
2023-05-14T00:21:58.056Z,100421.84
2023-05-14T00:25:00.898Z,100435.69
2023-05-14T00:28:04.254Z,100428.78
2023-05-14T00:31:06.929Z,100433.22
2023-05-14T00:34:09.632Z,100425.38
2023-05-14T00:37:16.716Z,100422.41
2023-05-14T00:40:20.905Z,100430.66
2023-05-14T00:43:25.116Z,100431.75
2023-05-14T00:46:28.494Z,100429.06
2023-05-14T00:49:31.275Z,100431.91
2023-05-14T00:52:35.390Z,100422.06
2023-05-14T00:55:39.330Z,100420.38
2023-05-14T00:58:42.065Z,100415.25
2023-05-14T01:01:44.966Z,100405.34
2023-05-14T01:04:47.739Z,100407.31
2023-05-14T01:08:00.931Z,100411.19
2023-05-14T01:11:07.864Z,100403.25
2023-05-14T01:14:21.504Z,100401.63
2023-05-14T01:17:27.836Z,100403.53
2023-05-14T01:20:30.601Z,100396.50
2023-05-14T01:23:34.644Z,100393.25
2023-05-14T01:26:37.743Z,100396.91
2023-05-14T01:29:44.809Z,100392.53
2023-05-14T01:32:52.973Z,100399.84
2023-05-14T01:35:56.251Z,100404.31
2023-05-14T01:39:02.086Z,100392.59
2023-05-14T01:42:05.653Z,100399.78
2023-05-14T01:45:10.531Z,100394.25
2023-05-14T01:48:14.000Z,100392.19
2023-05-14T01:51:18.911Z,100396.50
2023-05-14T01:54:22.940Z,100388.97
2023-05-14T01:57:25.650Z,100385.84
2023-05-14T02:00:32.056Z,100382.94
2023-05-14T02:03:34.875Z,100377.97
2023-05-14T02:06:37.624Z,100374.31
2023-05-14T02:09:42.039Z,100379.75
2023-05-14T02:12:44.783Z,100368.91
2023-05-14T02:15:47.533Z,100376.00
2023-05-14T02:18:50.298Z,100364.66
2023-05-14T02:21:53.025Z,100360.88
2023-05-14T02:24:57.077Z,100376.09
2023-05-14T02:27:59.775Z,100373.19
2023-05-14T02:31:03.198Z,100371.22
2023-05-14T02:34:07.525Z,100367.38
2023-05-14T02:37:10.947Z,100359.25
2023-05-14T02:40:15.211Z,100366.25
2023-05-14T02:43:17.905Z,100365.31
2023-05-14T02:46:20.843Z,100362.38
2023-05-14T02:49:26.628Z,100365.97
2023-05-14T02:52:29.385Z,100368.66
2023-05-14T02:55:33.428Z,100366.78
2023-05-14T02:58:36.128Z,100365.75
2023-05-14T03:01:38.828Z,100369.41
2023-05-14T03:04:44.008Z,100369.28
2023-05-14T03:07:47.020Z,100375.44
2023-05-14T03:10:51.065Z,100378.00
2023-05-14T03:13:53.783Z,100378.81
2023-05-14T03:16:56.526Z,100372.41
2023-05-14T03:19:59.210Z,100364.44
2023-05-14T03:23:02.285Z,100370.75
2023-05-14T03:26:06.749Z,100369.69
2023-05-14T03:29:10.748Z,100364.44
2023-05-14T03:32:13.523Z,100370.75
2023-05-14T03:35:16.272Z,100362.69
2023-05-14T03:38:19.017Z,100368.41
2023-05-14T03:41:24.141Z,100363.19
2023-05-14T03:44:26.860Z,100369.78
2023-05-14T03:47:29.568Z,100363.41
2023-05-14T03:50:32.597Z,100360.53
2023-05-14T03:53:35.299Z,100364.22
2023-05-14T03:56:43.306Z,100374.25
2023-05-14T03:59:46.009Z,100364.38
2023-05-14T04:02:49.109Z,100368.78
2023-05-14T04:05:52.161Z,100366.13
2023-05-14T04:08:54.845Z,100365.19
2023-05-14T04:11:58.916Z,100364.22
2023-05-14T04:15:02.996Z,100368.84
2023-05-14T04:18:06.080Z,100353.88
2023-05-14T04:21:08.851Z,100368.84
2023-05-14T04:24:11.568Z,100359.75
2023-05-14T04:27:21.560Z,100360.78
2023-05-14T04:30:24.458Z,100357.81
2023-05-14T04:33:27.352Z,100354.47
2023-05-14T04:36:30.065Z,100359.00
2023-05-14T04:39:32.787Z,100359.00
2023-05-14T04:42:36.807Z,100358.00
2023-05-14T04:45:40.960Z,100363.41
2023-05-14T04:48:43.705Z,100365.19
2023-05-14T04:51:46.400Z,100363.34
2023-05-14T04:54:49.121Z,100362.38
2023-05-14T04:57:53.369Z,100364.88
2023-05-14T05:00:56.581Z,100368.25
2023-05-14T05:03:59.343Z,100362.69
2023-05-14T05:07:03.047Z,100368.91
2023-05-14T05:10:06.514Z,100362.31
2023-05-14T05:13:10.595Z,100359.47
2023-05-14T05:16:17.091Z,100363.84
2023-05-14T05:19:24.387Z,100357.16
2023-05-14T05:22:32.489Z,100362.38
2023-05-14T05:25:36.037Z,100354.00
2023-05-14T05:28:40.103Z,100357.66
2023-05-14T05:31:43.176Z,100357.50
2023-05-14T05:34:45.859Z,100357.19
2023-05-14T05:37:48.633Z,100355.00
2023-05-14T05:40:51.332Z,100349.72
2023-05-14T05:43:55.352Z,100350.50
2023-05-14T05:47:01.143Z,100355.66
2023-05-14T05:50:03.902Z,100353.91
2023-05-14T05:53:10.040Z,100347.75
2023-05-14T05:56:12.789Z,100345.63
2023-05-14T05:59:16.844Z,100345.53
2023-05-14T06:02:20.323Z,100350.19
2023-05-14T06:05:24.113Z,100340.59
2023-05-14T06:08:27.101Z,100337.13
2023-05-14T06:11:32.854Z,100341.91
2023-05-14T06:14:36.841Z,100346.50
2023-05-14T06:17:39.812Z,100345.09
2023-05-14T06:20:42.521Z,100352.19
2023-05-14T06:23:46.106Z,100347.41
2023-05-14T06:26:49.429Z,100337.72
2023-05-14T06:29:53.571Z,100345.81
2023-05-14T06:32:56.487Z,100340.47
2023-05-14T06:35:59.526Z,100336.47
2023-05-14T06:39:02.275Z,100339.94
2023-05-14T06:42:05.366Z,100338.97
2023-05-14T06:45:10.309Z,100333.44
2023-05-14T06:48:14.163Z,100332.47
2023-05-14T06:51:17.099Z,100325.31
2023-05-14T06:54:20.568Z,100328.44
2023-05-14T06:57:23.497Z,100330.63
2023-05-14T07:00:27.932Z,100326.00
2023-05-14T07:03:30.775Z,100317.88
2023-05-14T07:06:33.584Z,100320.38
2023-05-14T07:09:36.316Z,100321.59
2023-05-14T07:12:39.082Z,100306.19
2023-05-14T07:15:43.259Z,100302.22
2023-05-14T07:18:46.151Z,100294.91
2023-05-14T07:21:48.869Z,100264.56
2023-05-14T07:24:52.042Z,100266.06
2023-05-14T07:27:55.150Z,100246.03
2023-05-14T07:30:59.403Z,100231.53
2023-05-14T07:34:02.077Z,100236.50
2023-05-14T07:37:05.139Z,100236.19
2023-05-14T07:40:08.924Z,100236.81
2023-05-14T07:43:12.081Z,100231.59
2023-05-14T07:46:16.582Z,100238.31
2023-05-14T07:49:19.319Z,100233.81
2023-05-14T07:52:22.050Z,100235.75
2023-05-14T07:55:24.830Z,100231.97
2023-05-14T07:58:27.873Z,100225.59
2023-05-14T08:01:32.379Z,100222.81
2023-05-14T08:04:36.143Z,100226.41
2023-05-14T08:07:38.993Z,100231.41
2023-05-14T08:10:43.241Z,100237.44
2023-05-14T08:13:45.991Z,100238.00
2023-05-14T08:16:50.121Z,100230.69
2023-05-14T08:19:54.350Z,100225.66
2023-05-14T08:22:57.381Z,100229.91
2023-05-14T08:26:02.261Z,100225.09
2023-05-14T08:29:05.132Z,100220.53
2023-05-14T08:32:22.119Z,100219.22
2023-05-14T08:35:26.552Z,100215.25
2023-05-14T08:38:29.213Z,100211.44
2023-05-14T08:41:32.900Z,100212.31
2023-05-14T08:44:44.825Z,100213.81
2023-05-14T08:47:51.491Z,100203.22
2023-05-14T08:50:54.367Z,100200.03
2023-05-14T08:54:01.562Z,100194.22
2023-05-14T08:57:04.734Z,100191.09
2023-05-14T09:00:11.754Z,100199.50
2023-05-14T09:03:17.287Z,100197.78
2023-05-14T09:06:21.492Z,100204.84
2023-05-14T09:09:24.806Z,100196.22
2023-05-14T09:12:27.498Z,100200.16
2023-05-14T09:15:30.562Z,100199.63
2023-05-14T09:18:36.943Z,100199.94
2023-05-14T09:21:40.238Z,100201.47
2023-05-14T09:24:43.464Z,100194.84
2023-05-14T09:27:50.279Z,100186.06
2023-05-14T09:30:53.152Z,100186.94
2023-05-14T09:33:57.276Z,100173.03
2023-05-14T09:37:01.751Z,100171.63
2023-05-14T09:40:08.949Z,100168.88
2023-05-14T09:43:11.773Z,100159.78
2023-05-14T09:46:14.593Z,100163.50
2023-05-14T09:49:19.211Z,100165.63
2023-05-14T09:52:21.937Z,100169.88
2023-05-14T09:55:25.271Z,100168.28
2023-05-14T09:58:29.039Z,100161.00
2023-05-14T10:01:33.027Z,100157.31
2023-05-14T10:04:38.614Z,100160.53
2023-05-14T10:07:45.778Z,100164.22
2023-05-14T10:10:52.209Z,100165.00
2023-05-14T10:14:04.191Z,100164.13
2023-05-14T10:17:17.994Z,100157.25
2023-05-14T10:20:23.937Z,100175.97
2023-05-14T10:23:27.294Z,100164.00
2023-05-14T10:26:30.298Z,100163.38
2023-05-14T10:29:35.384Z,100163.88
2023-05-14T10:32:38.840Z,100163.50
2023-05-14T10:35:59.362Z,100163.28
2023-05-14T10:39:05.136Z,100158.41
2023-05-14T10:42:08.380Z,100161.91
2023-05-14T10:45:12.686Z,100154.28
2023-05-14T10:48:16.199Z,100153.41
2023-05-14T10:51:22.968Z,100152.66
2023-05-14T10:54:28.572Z,100147.91
2023-05-14T10:57:33.021Z,100123.47
2023-05-14T11:00:36.947Z,100151.78
2023-05-14T11:03:44.847Z,100145.34
2023-05-14T11:06:50.111Z,100132.00
2023-05-14T11:09:53.325Z,100148.97
2023-05-14T11:12:57.505Z,100143.69
2023-05-14T11:16:08.713Z,100143.44
2023-05-14T11:19:22.989Z,100140.97
2023-05-14T11:22:27.558Z,100149.03
2023-05-14T11:25:30.619Z,100142.06
2023-05-14T11:28:33.315Z,100141.56
2023-05-14T11:31:36.897Z,100138.34
2023-05-14T11:34:39.681Z,100129.47
2023-05-14T11:37:44.326Z,100127.31
2023-05-14T11:40:53.406Z,100123.78
2023-05-14T11:43:56.288Z,100111.28
2023-05-14T11:47:01.831Z,100115.88
2023-05-14T11:50:05.952Z,100106.78
2023-05-14T11:53:10.866Z,100103.34
2023-05-14T11:56:13.581Z,100106.78
2023-05-14T11:59:19.008Z,100104.78
2023-05-14T12:02:22.925Z,100099.34
2023-05-14T12:05:26.314Z,100091.06
2023-05-14T12:08:31.543Z,100088.63
2023-05-14T12:11:37.127Z,100088.56
2023-05-14T12:14:41.811Z,100084.53
2023-05-14T12:17:50.317Z,100075.88
2023-05-14T12:20:53.128Z,100076.34
2023-05-14T12:24:00.964Z,100035.91
2023-05-14T12:27:04.438Z,100057.91
2023-05-14T12:33:14.562Z,100047.81
2023-05-14T12:36:21.836Z,100036.44
2023-05-14T12:39:27.413Z,100048.00
2023-05-14T12:42:30.129Z,100047.09
2023-05-14T12:45:32.892Z,100041.47
2023-05-14T12:48:35.934Z,100034.72
2023-05-14T12:51:38.795Z,100034.94
2023-05-14T12:54:43.511Z,100025.13
2023-05-14T12:57:46.343Z,100024.97
2023-05-14T13:00:49.087Z,100011.00
2023-05-14T13:03:52.160Z,100006.38
2023-05-14T13:06:54.925Z,100004.19
2023-05-14T13:09:59.119Z,99997.69
2023-05-14T13:13:02.485Z,100003.03
2023-05-14T13:16:05.713Z,100005.06
2023-05-14T13:19:11.147Z,99995.22
2023-05-14T13:22:14.411Z,99997.97
2023-05-14T13:25:18.706Z,99985.94
2023-05-14T13:28:21.421Z,99990.59
2023-05-14T13:31:24.174Z,99971.59
2023-05-14T13:34:27.021Z,99977.81
2023-05-14T13:37:29.783Z,99975.38
2023-05-14T13:40:33.930Z,99975.50
2023-05-14T13:43:37.005Z,99978.81
2023-05-14T13:46:39.799Z,99974.19
2023-05-14T13:49:42.533Z,99969.59
2023-05-14T13:52:45.233Z,99976.41
2023-05-14T13:55:49.844Z,99971.00
2023-05-14T13:58:52.884Z,99957.22
2023-05-14T14:01:55.747Z,99959.19
2023-05-14T14:04:58.558Z,99951.88
2023-05-14T14:08:13.149Z,99936.63
2023-05-14T14:11:25.911Z,99938.38
2023-05-14T14:14:29.036Z,99933.91
2023-05-14T14:17:31.854Z,99925.91
2023-05-14T14:20:34.645Z,99914.63
2023-05-14T14:23:37.484Z,99911.69
2023-05-14T14:26:42.045Z,99900.06
2023-05-14T14:29:44.752Z,99906.03
2023-05-14T14:32:48.519Z,99906.63
2023-05-14T14:35:53.520Z,99897.22
2023-05-14T14:38:56.292Z,99905.22
2023-05-14T14:42:00.357Z,99899.28
2023-05-14T14:45:03.301Z,99905.88
2023-05-14T14:48:27.513Z,99909.34
2023-05-14T14:51:31.343Z,99896.44
2023-05-14T14:54:34.144Z,99899.88
2023-05-14T14:57:38.221Z,99888.44
2023-05-14T15:00:41.523Z,99893.41
2023-05-14T15:03:45.627Z,99882.81
2023-05-14T15:06:48.540Z,99881.84
2023-05-14T15:09:51.208Z,99877.22
2023-05-14T15:12:55.616Z,99872.03
2023-05-14T15:15:58.311Z,99868.56
2023-05-14T15:19:01.039Z,99866.38
2023-05-14T15:22:03.960Z,99861.03
2023-05-14T15:25:07.108Z,99858.13
2023-05-14T15:28:11.440Z,99853.63
2023-05-14T15:31:14.359Z,99849.00
2023-05-14T15:34:17.097Z,99848.72
2023-05-14T15:37:19.820Z,99852.31
2023-05-14T15:40:23.158Z,99843.94
2023-05-14T15:43:27.411Z,99847.25
2023-05-14T15:46:30.384Z,99847.44
2023-05-14T15:49:33.091Z,99845.69
2023-05-14T15:52:36.304Z,99832.63
2023-05-14T15:55:39.176Z,99840.75
2023-05-14T15:58:43.253Z,99847.97
2023-05-14T16:01:50.597Z,99854.47
2023-05-14T16:04:53.392Z,99846.78
2023-05-14T16:07:59.638Z,99845.63
2023-05-14T16:11:02.465Z,99846.47
2023-05-14T16:14:10.578Z,99848.31
2023-05-14T16:17:13.403Z,99850.88
2023-05-14T16:20:16.691Z,99853.84
2023-05-14T16:23:19.659Z,99852.19
2023-05-14T16:26:22.407Z,99854.16
2023-05-14T16:29:26.570Z,99854.13
2023-05-14T16:32:29.281Z,99852.78
2023-05-14T16:35:32.177Z,99846.63
2023-05-14T16:38:38.518Z,99849.53
2023-05-14T16:41:44.112Z,99842.31
2023-05-14T16:44:48.253Z,99843.50
2023-05-14T16:47:51.190Z,99849.44
2023-05-14T16:50:53.934Z,99844.25
2023-05-14T16:53:56.699Z,99852.50
2023-05-14T16:56:59.357Z,99849.72
2023-05-14T17:00:06.174Z,99844.22
2023-05-14T17:03:09.013Z,99840.97
2023-05-14T17:06:11.809Z,99832.53
2023-05-14T17:09:14.505Z,99832.78
2023-05-14T17:12:17.230Z,99837.44
2023-05-14T17:15:21.483Z,99838.53
2023-05-14T17:18:24.314Z,99842.84
2023-05-14T17:21:26.988Z,99854.28
2023-05-14T17:24:29.765Z,99845.16
2023-05-14T17:27:33.345Z,99855.41
2023-05-14T17:30:37.545Z,99858.78
2023-05-14T17:33:40.279Z,99865.66
2023-05-14T17:36:43.001Z,99862.75
2023-05-14T17:39:45.669Z,99857.44
2023-05-14T17:42:48.350Z,99878.03
2023-05-14T17:45:54.374Z,99873.91
2023-05-14T17:48:58.221Z,99884.09
2023-05-14T17:52:01.006Z,99892.09
2023-05-14T17:55:03.873Z,99897.06
2023-05-14T17:58:06.762Z,99907.03
2023-05-14T18:01:10.908Z,99912.88
2023-05-14T18:04:13.909Z,99923.97
2023-05-14T18:07:16.689Z,99935.91
2023-05-14T18:10:19.461Z,99946.88
2023-05-14T18:13:22.199Z,99964.88
2023-05-14T18:16:26.454Z,99944.34
2023-05-14T18:19:29.668Z,99952.25
2023-05-14T18:22:32.313Z,99962.19
2023-05-14T18:25:35.497Z,99968.06
2023-05-14T18:28:38.571Z,99967.69
2023-05-14T18:31:42.572Z,99978.34
2023-05-14T18:34:45.698Z,99979.00
2023-05-14T18:37:48.383Z,99982.84
2023-05-14T18:40:51.704Z,99983.44
2023-05-14T18:43:54.478Z,99981.16
2023-05-14T18:46:59.437Z,99973.34
2023-05-14T18:50:02.763Z,99963.78
2023-05-14T18:53:05.438Z,99973.84
2023-05-14T18:56:09.574Z,99978.00
2023-05-14T18:59:12.371Z,99970.13
2023-05-14T19:02:16.621Z,99969.25
2023-05-14T19:05:19.840Z,99955.69
2023-05-14T19:08:22.722Z,99959.69
2023-05-14T19:11:26.076Z,99972.06
2023-05-14T19:14:28.800Z,99977.88
2023-05-14T19:17:34.550Z,99987.63
2023-05-14T19:20:37.721Z,99996.38
2023-05-14T19:23:40.707Z,100005.19
2023-05-14T19:26:43.575Z,100017.75
2023-05-14T19:29:46.258Z,100016.44
2023-05-14T19:32:50.690Z,100015.88
2023-05-14T19:35:53.584Z,100027.41
2023-05-14T19:38:56.712Z,100035.50
2023-05-14T19:41:59.403Z,100038.22
2023-05-14T19:45:02.183Z,100030.91
2023-05-14T19:48:07.305Z,100034.19
2023-05-14T19:51:11.761Z,100026.56
2023-05-14T19:54:14.832Z,100030.06
2023-05-14T19:57:17.691Z,100025.91
2023-05-14T20:00:20.767Z,100032.25
2023-05-14T20:03:26.652Z,100033.00
2023-05-14T20:06:29.643Z,100031.38
2023-05-14T20:09:32.492Z,100044.38
2023-05-14T20:12:35.239Z,100038.56
2023-05-14T20:15:38.028Z,100040.00
2023-05-14T20:18:42.205Z,100038.03
2023-05-14T20:21:44.936Z,100039.31
2023-05-14T20:24:47.651Z,100043.16
2023-05-14T20:27:50.474Z,100040.63
2023-05-14T20:30:54.830Z,100044.91
2023-05-14T20:33:58.937Z,100033.09
2023-05-14T20:37:02.075Z,100035.69
2023-05-14T20:40:06.187Z,100029.28
2023-05-14T20:43:09.015Z,100031.13
2023-05-14T20:46:11.778Z,100031.34
2023-05-14T20:49:15.928Z,100026.09
2023-05-14T20:52:19.523Z,100021.84
2023-05-14T20:55:23.219Z,100011.25
2023-05-14T20:58:26.533Z,100004.81
2023-05-14T21:01:29.234Z,100001.88
2023-05-14T21:04:34.403Z,99979.25
2023-05-14T21:07:37.725Z,99988.97
2023-05-14T21:10:40.440Z,99986.44
2023-05-14T21:13:44.454Z,99995.94
2023-05-14T21:16:47.306Z,100002.50
2023-05-14T21:19:51.407Z,100005.19
2023-05-14T21:22:54.644Z,100006.78
2023-05-14T21:25:57.984Z,100008.03
2023-05-14T21:29:02.119Z,99999.59
2023-05-14T21:32:05.366Z,99999.59
2023-05-14T21:35:10.447Z,99997.75
2023-05-14T21:38:13.191Z,99986.44
2023-05-14T21:41:16.413Z,99986.75
2023-05-14T21:44:19.108Z,99976.06
2023-05-14T21:47:22.051Z,99979.47
2023-05-14T21:50:29.224Z,99971.19
2023-05-14T21:53:31.934Z,99961.25
2023-05-14T21:56:36.434Z,99956.59
2023-05-14T21:59:39.199Z,99957.56
2023-05-14T22:02:41.937Z,99960.28
2023-05-14T22:05:45.964Z,99951.16
2023-05-14T22:08:48.676Z,99949.41
2023-05-14T22:11:51.837Z,99956.59
2023-05-14T22:14:54.629Z,99957.66
2023-05-14T22:17:57.843Z,99960.47
2023-05-14T22:21:02.222Z,99956.09
2023-05-14T22:24:05.585Z,99950.00
2023-05-14T22:27:08.301Z,99951.53
2023-05-14T22:30:11.863Z,99944.13
2023-05-14T22:33:14.594Z,99941.94
2023-05-14T22:36:18.647Z,99951.75
2023-05-14T22:39:21.504Z,99946.44
2023-05-14T22:42:24.252Z,99953.25
2023-05-14T22:45:27.225Z,99954.69
2023-05-14T22:48:29.984Z,99963.81
2023-05-14T22:51:34.338Z,99955.00
2023-05-14T22:54:37.389Z,99956.66
2023-05-14T22:57:40.392Z,99951.00
2023-05-14T23:00:43.101Z,99947.34
2023-05-14T23:18:57.011Z,99950.03
2023-05-14T23:22:01.147Z,99940.22
2023-05-14T23:25:03.879Z,99944.78
2023-05-14T23:28:06.543Z,99946.72
2023-05-14T23:31:09.240Z,99937.09
2023-05-14T23:34:11.868Z,99939.75
2023-05-14T23:37:15.920Z,99945.94
2023-05-14T23:40:18.783Z,99937.19
2023-05-14T23:43:23.689Z,99940.22
2023-05-14T23:46:26.585Z,99934.28
2023-05-14T23:49:29.306Z,99935.63
2023-05-14T23:52:34.711Z,99930.56
2023-05-14T23:55:37.401Z,99927.28
2023-05-14T23:58:40.201Z,99927.38
